Time;durP1;ratioP1;P1;durP2;ratioP2;P2;SDS_P1;SDS_P2;PMS_P1;PMS_P2;Temp;Humidity;BMP_temperature;BMP_pressure;BME280_temperature;BME280_humidity;BME280_pressure;Samples;Min_cycle;Max_cycle;Signal;HPM_P1;HPM_P2
2023/09/04 00:02:03;;;;;;;0.30;0.10;;;;;;;;;;4976344;28;20050;-84
2023/09/04 00:04:29;;;;;;;0.52;0.32;;;;;;;;;;4959824;28;20057;-84
2023/09/04 00:06:55;;;;;;;0.28;0.22;;;;;;;;;;4957372;28;20047;-83
2023/09/04 00:09:22;;;;;;;0.20;0.10;;;;;;;;;;4977632;28;20286;-85
2023/09/04 00:11:48;;;;;;;0.20;0.10;;;;;;;;;;4961558;28;20042;-83
2023/09/04 00:14:16;;;;;;;0.55;0.30;;;;;;;;;;4970811;28;20036;-84
2023/09/04 00:16:42;;;;;;;0.20;0.10;;;;;;;;;;4961044;28;20104;-85
2023/09/04 00:19:08;;;;;;;0.20;0.10;;;;;;;;;;4962668;28;20046;-86
2023/09/04 00:21:34;;;;;;;0.20;0.08;;;;;;;;;;4975216;28;20061;-85
2023/09/04 00:24:00;;;;;;;0.20;0.08;;;;;;;;;;4973818;28;20080;-83
2023/09/04 00:26:26;;;;;;;0.20;0.10;;;;;;;;;;4971880;28;20038;-83
2023/09/04 00:28:52;;;;;;;0.20;0.10;;;;;;;;;;4963632;28;20387;-86
2023/09/04 00:31:18;;;;;;;0.20;0.00;;;;;;;;;;4970901;28;20046;-83
2023/09/04 00:33:44;;;;;;;0.20;0.05;;;;;;;;;;4961504;28;20113;-84
2023/09/04 00:36:10;;;;;;;0.30;0.10;;;;;;;;;;4953244;28;20094;-84
2023/09/04 00:38:37;;;;;;;0.73;0.30;;;;;;;;;;4943088;28;20046;-86
2023/09/04 00:41:03;;;;;;;0.40;0.30;;;;;;;;;;4955874;28;20062;-83
2023/09/04 00:43:38;;;;;;;0.43;0.30;;;;;;;;;;4955345;28;20073;-83
2023/09/04 00:46:05;;;;;;;0.20;0.10;;;;;;;;;;4955186;28;20319;-84
2023/09/04 00:48:32;;;;;;;0.20;0.10;;;;;;;;;;4949927;28;20051;-84
2023/09/04 00:50:59;;;;;;;0.20;0.10;;;;;;;;;;4954582;28;20122;-84
2023/09/04 00:53:26;;;;;;;0.20;0.10;;;;;;;;;;4961121;28;20053;-85
2023/09/04 00:55:52;;;;;;;0.20;0.10;;;;;;;;;;4956500;28;20082;-84
2023/09/04 00:58:18;;;;;;;0.30;0.17;;;;;;;;;;4942144;28;20054;-85
2023/09/04 01:00:44;;;;;;;0.20;0.10;;;;;;;;;;4958277;28;20109;-86
2023/09/04 01:03:12;;;;;;;0.20;0.00;;;;;;;;;;4958280;28;20076;-84
2023/09/04 01:05:38;;;;;;;0.20;0.00;;;;;;;;;;4955603;28;20504;-84
2023/09/04 01:08:04;;;;;;;0.20;0.00;;;;;;;;;;4939756;28;20254;-84
2023/09/04 01:10:38;;;;;;;0.20;0.10;;;;;;;;;;4955888;28;20560;-84
2023/09/04 01:13:16;;;;;;;0.20;0.10;;;;;;;;;;4954541;28;20042;-84
2023/09/04 01:15:42;;;;;;;0.20;0.00;;;;;;;;;;4955240;28;20551;-85
2023/09/04 01:18:09;;;;;;;0.20;0.20;;;;;;;;;;4948830;28;20038;-84
2023/09/04 01:20:35;;;;;;;0.20;0.20;;;;;;;;;;4955619;28;20439;-84
2023/09/04 01:23:01;;;;;;;0.20;0.10;;;;;;;;;;4947048;28;20050;-86
2023/09/04 01:25:35;;;;;;;0.20;0.10;;;;;;;;;;4943703;28;20046;-85
2023/09/04 01:28:05;;;;;;;0.30;0.10;;;;;;;;;;4974812;28;20069;-86
2023/09/04 01:30:46;;;;;;;0.20;0.20;;;;;;;;;;4951734;28;20034;-85
2023/09/04 01:33:14;;;;;;;0.20;0.10;;;;;;;;;;4966873;28;20584;-85
2023/09/04 01:35:41;;;;;;;0.20;0.10;;;;;;;;;;4958116;28;20385;-86
2023/09/04 01:38:07;;;;;;;0.30;0.20;;;;;;;;;;4972433;28;20042;-86
2023/09/04 01:40:33;;;;;;;0.20;0.00;;;;;;;;;;4950933;28;20058;-84
2023/09/04 01:42:59;;;;;;;0.20;0.10;;;;;;;;;;4953558;28;20189;-85
2023/09/04 01:45:25;;;;;;;0.20;0.10;;;;;;;;;;4950008;28;20637;-86
2023/09/04 01:47:51;;;;;;;0.20;0.10;;;;;;;;;;4967527;28;20057;-85
2023/09/04 01:50:17;;;;;;;0.20;0.10;;;;;;;;;;4956019;28;20039;-85
2023/09/04 01:52:43;;;;;;;0.22;0.20;;;;;;;;;;4950446;28;20034;-84
2023/09/04 01:55:09;;;;;;;0.20;0.10;;;;;;;;;;4963586;28;20050;-85
2023/09/04 01:57:35;;;;;;;0.20;0.10;;;;;;;;;;4968654;28;20050;-86
2023/09/04 02:00:03;;;;;;;0.20;0.10;;;;;;;;;;4951951;28;20046;-84
2023/09/04 02:02:29;;;;;;;0.20;0.10;;;;;;;;;;4952468;28;20130;-84
2023/09/04 02:04:58;;;;;;;0.20;0.10;;;;;;;;;;4954916;28;20046;-86
2023/09/04 02:07:24;;;;;;;0.20;0.00;;;;;;;;;;4962731;28;20042;-85
2023/09/04 02:09:50;;;;;;;0.20;0.03;;;;;;;;;;4965545;28;20955;-85
2023/09/04 02:12:16;;;;;;;0.20;0.10;;;;;;;;;;4970243;28;20042;-87
2023/09/04 02:14:42;;;;;;;0.20;0.10;;;;;;;;;;4969927;28;20035;-86
2023/09/04 02:17:08;;;;;;;0.20;0.10;;;;;;;;;;4962555;28;20039;-84
2023/09/04 02:19:36;;;;;;;0.20;0.10;;;;;;;;;;4960499;28;20120;-86
2023/09/04 02:22:02;;;;;;;0.20;0.10;;;;;;;;;;4961912;28;20536;-84
2023/09/04 02:24:28;;;;;;;0.20;0.10;;;;;;;;;;4969407;28;20046;-85
2023/09/04 02:26:54;;;;;;;0.20;0.10;;;;;;;;;;4959016;28;20039;-84
2023/09/04 02:29:20;;;;;;;0.20;0.17;;;;;;;;;;4960282;28;20050;-87
2023/09/04 02:31:47;;;;;;;0.20;0.00;;;;;;;;;;4974582;23;20506;-79
2023/09/04 02:34:14;;;;;;;0.20;0.10;;;;;;;;;;4988213;28;20510;-78
2023/09/04 02:36:40;;;;;;;0.20;0.10;;;;;;;;;;4988080;28;20049;-79
2023/09/04 02:39:07;;;;;;;0.20;0.10;;;;;;;;;;5000148;28;20114;-79
2023/09/04 02:41:33;;;;;;;0.20;0.10;;;;;;;;;;4969809;28;20051;-79
2023/09/04 02:43:59;;;;;;;0.20;0.00;;;;;;;;;;4956132;28;20217;-79
2023/09/04 02:46:25;;;;;;;0.20;0.10;;;;;;;;;;4958375;28;20478;-79
2023/09/04 02:48:51;;;;;;;0.20;0.10;;;;;;;;;;4973343;28;20050;-79
2023/09/04 02:51:17;;;;;;;0.20;0.10;;;;;;;;;;4974538;28;20030;-79
2023/09/04 02:53:43;;;;;;;0.20;0.00;;;;;;;;;;4959004;28;20043;-79
2023/09/04 02:56:10;;;;;;;0.20;0.00;;;;;;;;;;4980882;28;20034;-79
2023/09/04 02:58:36;;;;;;;0.20;0.00;;;;;;;;;;4974985;28;20051;-79
2023/09/04 03:01:02;;;;;;;0.20;0.00;;;;;;;;;;4959936;28;20050;-79
2023/09/04 03:03:28;;;;;;;0.20;0.10;;;;;;;;;;4954464;28;20077;-79
2023/09/04 03:05:54;;;;;;;0.20;0.10;;;;;;;;;;4969708;28;20034;-80
2023/09/04 03:08:20;;;;;;;0.20;0.00;;;;;;;;;;4958810;28;20054;-79
2023/09/04 03:10:46;;;;;;;0.20;0.03;;;;;;;;;;4958961;28;20043;-79
2023/09/04 03:13:12;;;;;;;0.20;0.10;;;;;;;;;;4974428;28;20066;-79
2023/09/04 03:15:38;;;;;;;0.20;0.10;;;;;;;;;;4954724;28;20109;-79
2023/09/04 03:18:05;;;;;;;0.20;0.10;;;;;;;;;;4959573;28;20406;-79
2023/09/04 03:20:31;;;;;;;0.20;0.00;;;;;;;;;;4958835;28;20053;-80
2023/09/04 03:22:57;;;;;;;0.20;0.20;;;;;;;;;;4966281;28;20058;-79
2023/09/04 03:25:23;;;;;;;0.50;0.20;;;;;;;;;;4953322;28;20035;-79
2023/09/04 03:27:49;;;;;;;0.20;0.03;;;;;;;;;;4974187;28;20043;-79
2023/09/04 03:30:15;;;;;;;0.20;0.10;;;;;;;;;;4982739;28;20354;-79
2023/09/04 03:32:41;;;;;;;0.20;0.10;;;;;;;;;;4959324;28;20034;-79
2023/09/04 03:35:08;;;;;;;0.20;0.20;;;;;;;;;;4964024;28;20105;-80
2023/09/04 03:37:35;;;;;;;0.20;0.00;;;;;;;;;;4957406;28;20707;-79
2023/09/04 03:40:17;;;;;;;0.20;0.10;;;;;;;;;;4955512;28;20053;-79
2023/09/04 03:42:43;;;;;;;0.20;0.10;;;;;;;;;;4958661;28;20042;-80
2023/09/04 03:45:09;;;;;;;0.20;0.10;;;;;;;;;;4961585;28;20044;-79
2023/09/04 03:47:35;;;;;;;0.20;0.10;;;;;;;;;;4962248;28;20042;-79
2023/09/04 03:50:01;;;;;;;0.20;0.10;;;;;;;;;;4965613;28;20049;-79
2023/09/04 03:52:27;;;;;;;0.20;0.00;;;;;;;;;;4962677;28;20051;-79
2023/09/04 03:54:53;;;;;;;0.20;0.00;;;;;;;;;;4960909;28;20224;-79
2023/09/04 03:57:19;;;;;;;0.20;0.10;;;;;;;;;;4960665;28;20035;-80
2023/09/04 03:59:46;;;;;;;0.20;0.10;;;;;;;;;;4978328;28;20045;-80
2023/09/04 04:02:12;;;;;;;0.20;0.10;;;;;;;;;;4963940;28;20492;-80
2023/09/04 04:04:38;;;;;;;0.20;0.10;;;;;;;;;;4945432;28;20042;-81
2023/09/04 04:07:04;;;;;;;0.20;0.10;;;;;;;;;;4957453;28;20038;-79
2023/09/04 04:09:30;;;;;;;0.20;0.10;;;;;;;;;;4944589;28;20502;-80
2023/09/04 04:11:56;;;;;;;0.20;0.08;;;;;;;;;;4956899;28;21806;-80
2023/09/04 04:14:22;;;;;;;0.20;0.10;;;;;;;;;;4972157;28;22298;-79
2023/09/04 04:16:48;;;;;;;0.43;0.43;;;;;;;;;;4959570;28;20051;-79
2023/09/04 04:19:15;;;;;;;0.20;0.00;;;;;;;;;;4980226;28;20403;-80
2023/09/04 04:21:41;;;;;;;0.20;0.10;;;;;;;;;;4959335;28;20077;-79
2023/09/04 04:24:07;;;;;;;0.20;0.10;;;;;;;;;;4951565;28;20099;-80
2023/09/04 04:26:34;;;;;;;0.20;0.10;;;;;;;;;;4964833;28;20038;-80
2023/09/04 04:29:00;;;;;;;0.20;0.10;;;;;;;;;;4945531;28;20057;-80
2023/09/04 04:31:26;;;;;;;0.20;0.10;;;;;;;;;;4956528;28;20123;-80
2023/09/04 04:33:52;;;;;;;0.20;0.10;;;;;;;;;;4976806;28;20046;-81
2023/09/04 04:36:18;;;;;;;0.20;0.10;;;;;;;;;;4967438;28;20721;-80
2023/09/04 04:38:44;;;;;;;0.20;0.17;;;;;;;;;;4968027;28;20045;-80
2023/09/04 04:41:10;;;;;;;0.63;0.30;;;;;;;;;;4961485;28;20051;-80
2023/09/04 04:43:36;;;;;;;0.20;0.00;;;;;;;;;;4977050;28;20523;-80
2023/09/04 04:46:02;;;;;;;0.20;0.10;;;;;;;;;;4957079;28;20046;-81
2023/09/04 04:48:28;;;;;;;0.20;0.10;;;;;;;;;;4963586;28;20038;-80
2023/09/04 04:50:54;;;;;;;0.20;0.10;;;;;;;;;;4965226;28;20129;-80
2023/09/04 04:53:20;;;;;;;0.40;0.20;;;;;;;;;;4964009;28;20100;-80
2023/09/04 04:55:46;;;;;;;0.20;0.10;;;;;;;;;;4972980;28;20042;-80
2023/09/04 04:58:12;;;;;;;0.20;0.10;;;;;;;;;;4962754;28;20439;-82
2023/09/04 05:00:39;;;;;;;0.20;0.10;;;;;;;;;;4970405;28;20042;-82
2023/09/04 05:03:05;;;;;;;0.52;0.40;;;;;;;;;;4978559;28;20415;-80
2023/09/04 05:05:31;;;;;;;0.20;0.10;;;;;;;;;;4962078;28;20047;-80
2023/09/04 05:07:57;;;;;;;0.20;0.03;;;;;;;;;;4981162;28;20043;-81
2023/09/04 05:10:23;;;;;;;0.20;0.00;;;;;;;;;;4966745;28;20049;-80
2023/09/04 05:12:49;;;;;;;0.20;0.10;;;;;;;;;;4980731;28;20108;-81
2023/09/04 05:15:15;;;;;;;0.20;0.03;;;;;;;;;;4967080;28;20503;-79
2023/09/04 05:17:41;;;;;;;0.20;0.10;;;;;;;;;;4981853;28;20124;-80
2023/09/04 05:20:08;;;;;;;0.20;0.10;;;;;;;;;;4975213;28;20109;-81
2023/09/04 05:22:34;;;;;;;0.20;0.05;;;;;;;;;;4961555;28;20056;-80
2023/09/04 05:25:00;;;;;;;0.20;0.17;;;;;;;;;;4961705;28;20081;-80
2023/09/04 05:27:27;;;;;;;0.30;0.30;;;;;;;;;;4970810;28;20050;-80
2023/09/04 05:29:54;;;;;;;0.20;0.00;;;;;;;;;;4983645;28;20031;-80
2023/09/04 05:32:20;;;;;;;0.20;0.10;;;;;;;;;;4969188;28;20034;-81
2023/09/04 05:34:46;;;;;;;0.20;0.10;;;;;;;;;;4962036;28;20043;-80
2023/09/04 05:37:13;;;;;;;0.20;0.10;;;;;;;;;;4957323;28;20050;-80
2023/09/04 05:39:39;;;;;;;0.20;0.00;;;;;;;;;;4960469;28;20078;-80
2023/09/04 05:42:05;;;;;;;0.20;0.00;;;;;;;;;;4959362;28;20046;-80
2023/09/04 05:44:31;;;;;;;0.20;0.10;;;;;;;;;;4962837;28;20061;-80
2023/09/04 05:46:58;;;;;;;0.20;0.10;;;;;;;;;;4966507;28;20038;-81
2023/09/04 05:49:24;;;;;;;0.20;0.10;;;;;;;;;;4969194;28;20094;-80
2023/09/04 05:51:50;;;;;;;0.30;0.10;;;;;;;;;;4960887;28;20062;-81
2023/09/04 05:54:16;;;;;;;0.20;0.10;;;;;;;;;;4977528;28;20141;-80
2023/09/04 05:56:43;;;;;;;0.20;0.10;;;;;;;;;;4965663;28;20058;-81
2023/09/04 05:59:09;;;;;;;0.20;0.10;;;;;;;;;;4968630;28;20047;-81
2023/09/04 06:01:35;;;;;;;0.20;0.17;;;;;;;;;;4953657;28;20054;-80
2023/09/04 06:04:01;;;;;;;0.20;0.10;;;;;;;;;;4976394;28;20047;-80
2023/09/04 06:06:27;;;;;;;0.20;0.00;;;;;;;;;;4965862;28;20034;-80
2023/09/04 06:08:53;;;;;;;0.20;0.10;;;;;;;;;;4963830;28;20514;-81
2023/09/04 06:11:20;;;;;;;0.20;0.10;;;;;;;;;;4957928;28;20088;-81
2023/09/04 06:13:46;;;;;;;0.20;0.10;;;;;;;;;;4963807;28;20043;-81
2023/09/04 06:16:14;;;;;;;0.20;0.10;;;;;;;;;;4966718;28;20049;-80
2023/09/04 06:18:40;;;;;;;0.20;0.10;;;;;;;;;;4983145;28;20082;-80
2023/09/04 06:21:06;;;;;;;0.20;0.20;;;;;;;;;;4965859;28;20046;-80
2023/09/04 06:23:32;;;;;;;0.30;0.25;;;;;;;;;;4978066;28;20266;-79
2023/09/04 06:26:00;;;;;;;0.20;0.10;;;;;;;;;;4967959;28;20392;-80
2023/09/04 06:28:26;;;;;;;0.20;0.10;;;;;;;;;;4991953;28;20057;-80
2023/09/04 06:30:53;;;;;;;0.20;0.00;;;;;;;;;;4976109;28;20038;-81
2023/09/04 06:33:19;;;;;;;0.20;0.15;;;;;;;;;;4977280;28;20038;-80
2023/09/04 06:35:45;;;;;;;0.20;0.10;;;;;;;;;;4975268;28;20099;-80
2023/09/04 06:38:12;;;;;;;0.20;0.10;;;;;;;;;;4979435;28;20519;-80
2023/09/04 06:40:38;;;;;;;0.68;0.22;;;;;;;;;;4961115;28;20049;-80
2023/09/04 06:43:04;;;;;;;0.20;0.00;;;;;;;;;;4971014;28;20034;-80
2023/09/04 06:45:30;;;;;;;0.20;0.00;;;;;;;;;;4946275;28;20150;-80
2023/09/04 06:47:56;;;;;;;0.30;0.30;;;;;;;;;;4973339;28;20191;-79
2023/09/04 06:50:22;;;;;;;0.20;0.10;;;;;;;;;;4960414;28;20034;-80
2023/09/04 06:52:49;;;;;;;0.20;0.10;;;;;;;;;;4974320;28;20054;-80
2023/09/04 06:55:15;;;;;;;0.20;0.10;;;;;;;;;;4965460;28;20050;-80
2023/09/04 06:57:41;;;;;;;0.20;0.05;;;;;;;;;;4952237;28;20058;-81
2023/09/04 07:00:08;;;;;;;0.20;0.10;;;;;;;;;;4960232;28;20061;-81
2023/09/04 07:02:34;;;;;;;0.20;0.10;;;;;;;;;;4975247;28;20051;-80
2023/09/04 07:05:01;;;;;;;0.20;0.10;;;;;;;;;;4957085;28;20049;-79
2023/09/04 07:07:27;;;;;;;0.20;0.00;;;;;;;;;;4958241;28;20051;-81
2023/09/04 07:09:53;;;;;;;0.20;0.10;;;;;;;;;;4959919;28;20062;-80
2023/09/04 07:12:19;;;;;;;0.20;0.00;;;;;;;;;;4974668;28;20093;-80
2023/09/04 07:14:44;;;;;;;0.20;0.10;;;;;;;;;;4976570;28;20094;-79
2023/09/04 07:17:10;;;;;;;0.20;0.08;;;;;;;;;;4973022;28;20313;-80
2023/09/04 07:19:38;;;;;;;0.20;0.10;;;;;;;;;;4960591;28;20118;-79
2023/09/04 07:22:04;;;;;;;0.30;0.20;;;;;;;;;;4958906;28;20046;-81
2023/09/04 07:24:30;;;;;;;0.30;0.17;;;;;;;;;;4970770;28;20590;-79
2023/09/04 07:26:56;;;;;;;0.30;0.15;;;;;;;;;;4980122;28;20415;-79
2023/09/04 07:29:22;;;;;;;0.20;0.10;;;;;;;;;;4959834;28;20119;-79
2023/09/04 07:31:48;;;;;;;0.20;0.10;;;;;;;;;;4959856;28;20042;-80
2023/09/04 07:34:14;;;;;;;0.30;0.17;;;;;;;;;;4979229;28;20038;-79
2023/09/04 07:36:40;;;;;;;0.20;0.03;;;;;;;;;;4973868;28;20050;-78
2023/09/04 07:39:07;;;;;;;0.30;0.20;;;;;;;;;;4955347;28;20444;-80
2023/09/04 07:41:33;;;;;;;0.20;0.10;;;;;;;;;;4979331;28;20043;-80
2023/09/04 07:43:59;;;;;;;0.20;0.10;;;;;;;;;;4961937;28;20042;-80
2023/09/04 07:46:25;;;;;;;0.20;0.00;;;;;;;;;;4958626;28;21068;-79
2023/09/04 07:48:51;;;;;;;0.25;0.25;;;;;;;;;;4962119;28;20039;-81
2023/09/04 07:51:19;;;;;;;0.20;0.10;;;;;;;;;;4973980;28;20158;-78
2023/09/04 07:53:45;;;;;;;0.20;0.05;;;;;;;;;;4961563;28;20045;-82
2023/09/04 07:56:11;;;;;;;0.20;0.10;;;;;;;;;;4966130;28;20058;-79
2023/09/04 07:58:39;;;;;;;0.20;0.10;;;;;;;;;;4988274;28;20137;-80
2023/09/04 08:01:06;;;;;;;0.20;0.03;;;;;;;;;;4961659;28;20092;-79
2023/09/04 08:03:32;;;;;;;0.20;0.10;;;;;;;;;;4974948;28;20050;-79
2023/09/04 08:05:58;;;;;;;0.20;0.00;;;;;;;;;;4973187;28;20061;-80
2023/09/04 08:08:24;;;;;;;0.32;0.20;;;;;;;;;;4977311;28;20427;-81
2023/09/04 08:10:51;;;;;;;0.20;0.00;;;;;;;;;;4975219;28;20034;-80
2023/09/04 08:13:18;;;;;;;0.20;0.10;;;;;;;;;;4950244;28;20050;-80
2023/09/04 08:15:44;;;;;;;0.30;0.28;;;;;;;;;;4976500;28;20045;-77
2023/09/04 08:18:10;;;;;;;0.82;0.22;;;;;;;;;;4978627;28;20034;-79
2023/09/04 08:20:37;;;;;;;0.20;0.10;;;;;;;;;;4975357;28;20560;-80
2023/09/04 08:23:04;;;;;;;0.43;0.15;;;;;;;;;;4970378;28;20376;-80
2023/09/04 08:25:30;;;;;;;0.20;0.10;;;;;;;;;;4974962;28;20109;-80
2023/09/04 08:27:56;;;;;;;0.20;0.20;;;;;;;;;;4960230;28;20134;-81
2023/09/04 08:30:22;;;;;;;0.20;0.10;;;;;;;;;;4968594;28;20038;-80
2023/09/04 08:32:48;;;;;;;0.20;0.00;;;;;;;;;;5031694;23;20047;-87
2023/09/04 08:35:29;;;;;;;0.20;0.10;;;;;;;;;;4937655;28;20043;-86
2023/09/04 08:37:56;;;;;;;0.32;0.20;;;;;;;;;;4927340;28;20121;-86
2023/09/04 08:41:10;;;;;;;0.20;0.05;;;;;;;;;;4928338;28;20109;-86
2023/09/04 08:44:23;;;;;;;;;;;;;;;;;;;;;
2023/09/04 08:50:13;;;;;;;0.73;0.43;;;;;;;;;;4943539;28;20090;-85
2023/09/04 08:52:52;;;;;;;0.20;0.00;;;;;;;;;;4921523;28;20030;-87
2023/09/04 08:55:21;;;;;;;0.20;0.10;;;;;;;;;;4938234;28;20046;-84
2023/09/04 08:57:59;;;;;;;0.20;0.00;;;;;;;;;;4937732;28;20047;-86
2023/09/04 09:00:35;;;;;;;0.20;0.10;;;;;;;;;;4939860;28;20463;-83
2023/09/04 09:03:02;;;;;;;0.20;0.10;;;;;;;;;;4942064;28;20039;-84
2023/09/04 09:05:33;;;;;;;0.20;0.10;;;;;;;;;;4935758;28;20047;-84
2023/09/04 09:08:00;;;;;;;0.20;0.10;;;;;;;;;;4930680;28;20147;-85
2023/09/04 09:10:39;;;;;;;;;;;;;;;;;;;;;
2023/09/04 09:13:05;;;;;;;0.20;0.10;;;;;;;;;;4933787;28;20048;-83
2023/09/04 09:15:31;;;;;;;0.20;0.10;;;;;;;;;;4928046;28;20125;-84
2023/09/04 09:18:00;;;;;;;0.20;0.10;;;;;;;;;;4939075;28;20039;-85
2023/09/04 09:20:38;;;;;;;0.20;0.10;;;;;;;;;;4936693;28;20054;-85
2023/09/04 09:23:05;;;;;;;0.20;0.10;;;;;;;;;;4935983;28;20504;-84
2023/09/04 09:25:38;;;;;;;0.20;0.00;;;;;;;;;;4942090;28;20085;-84
2023/09/04 09:28:09;;;;;;;0.20;0.13;;;;;;;;;;4943428;28;20082;-84
2023/09/04 09:30:37;;;;;;;0.20;0.00;;;;;;;;;;4952222;28;20090;-84
2023/09/04 09:33:13;;;;;;;0.20;0.00;;;;;;;;;;4954251;28;20549;-84
2023/09/04 09:35:42;;;;;;;0.20;0.10;;;;;;;;;;4983776;28;20051;-83
2023/09/04 09:38:09;;;;;;;0.20;0.10;;;;;;;;;;4970394;28;20061;-84
2023/09/04 09:40:35;;;;;;;0.20;0.10;;;;;;;;;;4972652;28;20459;-85
2023/09/04 09:43:04;;;;;;;0.20;0.00;;;;;;;;;;4983390;28;20133;-83
2023/09/04 09:45:34;;;;;;;0.20;0.10;;;;;;;;;;4978585;28;20546;-84
2023/09/04 09:48:06;;;;;;;0.20;0.08;;;;;;;;;;4979061;28;20047;-84
2023/09/04 09:50:33;;;;;;;0.20;0.10;;;;;;;;;;4954922;28;20042;-85
2023/09/04 09:53:03;;;;;;;0.20;0.20;;;;;;;;;;4968116;28;20036;-85
2023/09/04 09:55:30;;;;;;;0.20;0.10;;;;;;;;;;4978374;28;20502;-84
2023/09/04 09:57:58;;;;;;;0.20;0.03;;;;;;;;;;4983365;28;20046;-85
2023/09/04 10:00:25;;;;;;;0.20;0.10;;;;;;;;;;4963609;28;20049;-85
2023/09/04 10:02:53;;;;;;;0.20;0.10;;;;;;;;;;5013632;23;20511;-84
2023/09/04 10:05:26;;;;;;;0.20;0.20;;;;;;;;;;4979364;28;20516;-85
2023/09/04 10:07:58;;;;;;;0.20;0.00;;;;;;;;;;4990889;28;20567;-85
2023/09/04 10:10:24;;;;;;;0.20;0.00;;;;;;;;;;4977294;28;20381;-84
2023/09/04 10:12:58;;;;;;;0.25;0.13;;;;;;;;;;4996146;28;20039;-85
2023/09/04 10:15:39;;;;;;;0.20;0.10;;;;;;;;;;4979323;28;20030;-86
2023/09/04 10:18:25;;;;;;;0.20;0.10;;;;;;;;;;4972864;28;20046;-86
2023/09/04 10:20:59;;;;;;;0.20;0.10;;;;;;;;;;4957637;28;20120;-84
2023/09/04 10:23:32;;;;;;;0.20;0.00;;;;;;;;;;4963092;28;20506;-85
2023/09/04 10:26:23;;;;;;;0.20;0.10;;;;;;;;;;4978399;28;20047;-85
2023/09/04 10:29:24;;;;;;;0.20;0.10;;;;;;;;;;4995966;28;20050;-85
2023/09/04 10:35:19;;;;;;;0.28;0.17;;;;;;;;;;4975833;28;20100;-85
2023/09/04 10:37:49;;;;;;;;;;;;;;;;;;4983321;28;20533;-84
2023/09/04 10:43:42;;;;;;;0.20;0.00;;;;;;;;;;4981331;28;20128;-85
2023/09/04 10:46:15;;;;;;;0.20;0.10;;;;;;;;;;4965111;28;20428;-86
2023/09/04 10:48:49;;;;;;;0.43;0.32;;;;;;;;;;4977503;28;20290;-86
2023/09/04 10:51:31;;;;;;;0.20;0.10;;;;;;;;;;4961553;28;20100;-86
2023/09/04 10:54:01;;;;;;;;;;;;;;;;;;4975281;28;20125;-86
2023/09/04 10:56:27;;;;;;;0.30;0.20;;;;;;;;;;4975029;28;19961;-84
2023/09/04 10:59:15;;;;;;;0.20;0.10;;;;;;;;;;4965139;28;20395;-84
2023/09/04 11:01:47;;;;;;;0.20;0.13;;;;;;;;;;4977973;28;20101;-85
2023/09/04 11:04:26;;;;;;;0.20;0.10;;;;;;;;;;4961918;28;20053;-84
2023/09/04 11:07:12;;;;;;;0.20;0.10;;;;;;;;;;4998072;28;20186;-85
2023/09/04 11:10:07;;;;;;;0.20;0.10;;;;;;;;;;4975656;28;20038;-86
2023/09/04 11:12:37;;;;;;;0.20;0.10;;;;;;;;;;4973132;28;20038;-85
2023/09/04 11:15:16;;;;;;;0.20;0.10;;;;;;;;;;4961475;28;20133;-81
2023/09/04 11:17:46;;;;;;;0.20;0.10;;;;;;;;;;4975497;28;20141;-86
2023/09/04 11:20:14;;;;;;;0.20;0.05;;;;;;;;;;4982098;28;20911;-84
2023/09/04 11:22:48;;;;;;;0.20;0.10;;;;;;;;;;4968662;28;20068;-84
2023/09/04 11:25:20;;;;;;;0.20;0.10;;;;;;;;;;4961371;28;20814;-85
2023/09/04 11:27:49;;;;;;;0.20;0.10;;;;;;;;;;4978077;28;20513;-84
2023/09/04 11:30:15;;;;;;;0.20;0.10;;;;;;;;;;4974287;28;20037;-83
2023/09/04 11:32:59;;;;;;;0.20;0.10;;;;;;;;;;4957181;28;20328;-85
2023/09/04 11:35:32;;;;;;;0.20;0.10;;;;;;;;;;4971816;28;20073;-87
2023/09/04 11:38:00;;;;;;;0.20;0.10;;;;;;;;;;4962521;28;20137;-85
2023/09/04 11:40:36;;;;;;;0.20;0.10;;;;;;;;;;4983370;28;20052;-86
2023/09/04 11:43:02;;;;;;;0.20;0.10;;;;;;;;;;4978571;28;20236;-85
2023/09/04 11:45:31;;;;;;;0.20;0.10;;;;;;;;;;4974856;28;20431;-85
2023/09/04 11:48:03;;;;;;;0.20;0.10;;;;;;;;;;4978102;28;20519;-84
2023/09/04 11:50:30;;;;;;;0.40;0.20;;;;;;;;;;4965497;28;20057;-86
2023/09/04 11:52:56;;;;;;;0.20;0.10;;;;;;;;;;4955933;28;20054;-85
2023/09/04 11:55:25;;;;;;;0.20;0.15;;;;;;;;;;4979395;28;20046;-86
2023/09/04 11:57:51;;;;;;;0.20;0.10;;;;;;;;;;4974735;28;20057;-84
2023/09/04 12:00:18;;;;;;;0.75;0.35;;;;;;;;;;4975543;28;20034;-84
2023/09/04 12:02:44;;;;;;;0.20;0.10;;;;;;;;;;4965388;28;20053;-84
2023/09/04 12:05:10;;;;;;;0.20;0.00;;;;;;;;;;4996069;28;20609;-86
2023/09/04 12:07:40;;;;;;;0.20;0.10;;;;;;;;;;4962085;28;20148;-83
2023/09/04 12:10:09;;;;;;;0.20;0.10;;;;;;;;;;4973510;28;20088;-84
2023/09/04 12:12:43;;;;;;;0.20;0.00;;;;;;;;;;4976265;28;20166;-86
2023/09/04 12:15:10;;;;;;;0.20;0.00;;;;;;;;;;4967778;28;20046;-83
2023/09/04 12:17:36;;;;;;;0.20;0.00;;;;;;;;;;4970851;28;20049;-85
2023/09/04 12:20:08;;;;;;;0.20;0.10;;;;;;;;;;4966657;28;20050;-84
2023/09/04 12:22:34;;;;;;;0.20;0.10;;;;;;;;;;4968739;28;20038;-85
2023/09/04 12:25:07;;;;;;;0.20;0.05;;;;;;;;;;4958708;28;20152;-85
2023/09/04 12:27:37;;;;;;;0.20;0.10;;;;;;;;;;4960356;28;20605;-85
2023/09/04 12:30:04;;;;;;;0.20;0.10;;;;;;;;;;4954557;28;20101;-86
2023/09/04 12:32:34;;;;;;;0.30;0.20;;;;;;;;;;4957169;28;20164;-88
2023/09/04 12:35:04;;;;;;;0.20;0.10;;;;;;;;;;4950669;28;20096;-85
2023/09/04 12:37:33;;;;;;;0.20;0.10;;;;;;;;;;4973160;28;20089;-85
2023/09/04 12:39:59;;;;;;;0.20;0.10;;;;;;;;;;4969576;28;20203;-85
2023/09/04 12:42:25;;;;;;;0.20;0.00;;;;;;;;;;4990964;28;20491;-85
2023/09/04 12:44:51;;;;;;;0.20;0.10;;;;;;;;;;4974197;28;20132;-86
2023/09/04 12:47:18;;;;;;;0.25;0.13;;;;;;;;;;4969234;28;20380;-85
2023/09/04 12:49:44;;;;;;;0.20;0.10;;;;;;;;;;4976740;28;20026;-86
2023/09/04 12:52:10;;;;;;;0.20;0.10;;;;;;;;;;4964556;28;20042;-85
2023/09/04 12:54:36;;;;;;;0.63;0.20;;;;;;;;;;4970006;28;20499;-85
2023/09/04 12:57:03;;;;;;;0.20;0.10;;;;;;;;;;4975898;28;20277;-86
2023/09/04 12:59:29;;;;;;;0.20;0.20;;;;;;;;;;4965535;28;20045;-85
2023/09/04 13:01:55;;;;;;;0.28;0.17;;;;;;;;;;4974253;28;20061;-85
2023/09/04 13:04:21;;;;;;;0.20;0.00;;;;;;;;;;4969684;28;20092;-84
2023/09/04 13:06:47;;;;;;;0.20;0.10;;;;;;;;;;4977446;28;20455;-87
2023/09/04 13:09:13;;;;;;;0.20;0.10;;;;;;;;;;4975888;28;20125;-86
2023/09/04 13:11:42;;;;;;;0.20;0.00;;;;;;;;;;4986936;28;20042;-85
2023/09/04 13:14:08;;;;;;;0.20;0.10;;;;;;;;;;4958841;28;20089;-86
2023/09/04 13:16:46;;;;;;;0.20;0.10;;;;;;;;;;4976590;28;20047;-86
2023/09/04 13:19:13;;;;;;;0.20;0.10;;;;;;;;;;4960713;28;20070;-84
2023/09/04 13:21:40;;;;;;;0.20;0.10;;;;;;;;;;4964791;28;20077;-84
2023/09/04 13:24:06;;;;;;;0.30;0.15;;;;;;;;;;4978284;28;20133;-84
2023/09/04 13:26:32;;;;;;;0.20;0.13;;;;;;;;;;4974141;28;20038;-84
2023/09/04 13:28:58;;;;;;;0.20;0.10;;;;;;;;;;4968934;28;20444;-85
2023/09/04 13:31:24;;;;;;;0.20;0.10;;;;;;;;;;4981389;28;20054;-86
2023/09/04 13:33:50;;;;;;;0.20;0.10;;;;;;;;;;4976357;28;20042;-85
2023/09/04 13:36:16;;;;;;;0.20;0.10;;;;;;;;;;4989846;28;20442;-84
2023/09/04 13:38:43;;;;;;;0.20;0.10;;;;;;;;;;4976437;28;20314;-84
2023/09/04 13:41:09;;;;;;;0.40;0.20;;;;;;;;;;4967949;28;20043;-84
2023/09/04 13:43:36;;;;;;;0.20;0.08;;;;;;;;;;4956828;28;20042;-86
2023/09/04 13:46:02;;;;;;;0.20;0.03;;;;;;;;;;4958769;28;20045;-86
2023/09/04 13:48:31;;;;;;;0.20;0.10;;;;;;;;;;4973215;28;20045;-84
2023/09/04 13:50:58;;;;;;;0.63;0.17;;;;;;;;;;4978021;28;20038;-84
2023/09/04 13:53:24;;;;;;;0.30;0.10;;;;;;;;;;4970515;28;20568;-84
2023/09/04 13:55:50;;;;;;;0.20;0.10;;;;;;;;;;4968339;28;20038;-84
2023/09/04 13:58:16;;;;;;;0.20;0.10;;;;;;;;;;4987754;28;20702;-84
2023/09/04 14:00:42;;;;;;;0.20;0.10;;;;;;;;;;4955405;28;20407;-84
2023/09/04 14:03:11;;;;;;;0.20;0.10;;;;;;;;;;4959526;28;20495;-85
2023/09/04 14:05:38;;;;;;;0.20;0.03;;;;;;;;;;4961948;28;20133;-83
2023/09/04 14:08:04;;;;;;;0.20;0.10;;;;;;;;;;4959464;28;20045;-85
2023/09/04 14:10:30;;;;;;;0.20;0.10;;;;;;;;;;4978526;28;20034;-83
2023/09/04 14:12:56;;;;;;;0.20;0.10;;;;;;;;;;4967105;28;20042;-84
2023/09/04 14:15:22;;;;;;;0.30;0.10;;;;;;;;;;4968274;28;20070;-84
2023/09/04 14:17:48;;;;;;;0.20;0.10;;;;;;;;;;4966290;28;20034;-83
2023/09/04 14:20:14;;;;;;;0.20;0.10;;;;;;;;;;4963168;28;20044;-84
2023/09/04 14:22:40;;;;;;;0.20;0.10;;;;;;;;;;4957509;28;21008;-84
2023/09/04 14:25:09;;;;;;;0.20;0.00;;;;;;;;;;4968749;28;20052;-85
2023/09/04 14:27:35;;;;;;;0.20;0.10;;;;;;;;;;4971614;28;20046;-84
2023/09/04 14:30:01;;;;;;;0.20;0.10;;;;;;;;;;4994766;28;20050;-85
2023/09/04 14:32:27;;;;;;;0.20;0.00;;;;;;;;;;4978986;28;20035;-85
2023/09/04 14:34:53;;;;;;;0.20;0.10;;;;;;;;;;4992237;28;20054;-85
2023/09/04 14:37:19;;;;;;;0.20;0.10;;;;;;;;;;4976667;28;20042;-85
2023/09/04 14:39:54;;;;;;;0.20;0.10;;;;;;;;;;4976687;28;20057;-85
2023/09/04 14:42:20;;;;;;;0.20;0.10;;;;;;;;;;4969474;28;20046;-84
2023/09/04 14:44:46;;;;;;;0.25;0.10;;;;;;;;;;4990092;28;21243;-85
2023/09/04 14:47:15;;;;;;;0.20;0.10;;;;;;;;;;4976726;28;20042;-84
2023/09/04 14:49:56;;;;;;;0.50;0.20;;;;;;;;;;4967887;28;20044;-84
2023/09/04 14:52:25;;;;;;;0.20;0.10;;;;;;;;;;4975508;28;20070;-84
2023/09/04 14:54:51;;;;;;;0.20;0.10;;;;;;;;;;4978783;28;20454;-86
2023/09/04 14:57:17;;;;;;;0.20;0.10;;;;;;;;;;4981095;28;20038;-85
2023/09/04 14:59:46;;;;;;;0.20;0.00;;;;;;;;;;4974490;28;20227;-86
2023/09/04 15:02:12;;;;;;;0.20;0.10;;;;;;;;;;4967356;28;20047;-85